sensor_id;sensor_type;location;lat;lon;timestamp;P1;durP1;ratioP1;P2;durP2;ratioP2
23432;SDS011;41331;45.412;10.992;2022-09-12T00:03:52;0.88;;;0.35;;
23432;SDS011;41331;45.412;10.992;2022-09-12T00:06:23;1.35;;;0.30;;
23432;SDS011;41331;45.412;10.992;2022-09-12T00:08:56;1.80;;;0.50;;
23432;SDS011;41331;45.412;10.992;2022-09-12T00:11:25;3.30;;;0.43;;
23432;SDS011;41331;45.412;10.992;2022-09-12T00:13:57;2.50;;;0.60;;
23432;SDS011;41331;45.412;10.992;2022-09-12T00:16:28;3.20;;;0.60;;
23432;SDS011;41331;45.412;10.992;2022-09-12T00:18:57;2.17;;;0.50;;
23432;SDS011;41331;45.412;10.992;2022-09-12T00:21:25;1.80;;;0.32;;
23432;SDS011;41331;45.412;10.992;2022-09-12T00:23:55;3.40;;;0.50;;
23432;SDS011;41331;45.412;10.992;2022-09-12T00:26:22;2.17;;;0.40;;
23432;SDS011;41331;45.412;10.992;2022-09-12T00:28:50;2.85;;;0.40;;
23432;SDS011;41331;45.412;10.992;2022-09-12T00:31:19;2.42;;;0.50;;
23432;SDS011;41331;45.412;10.992;2022-09-12T00:33:50;1.17;;;0.40;;
23432;SDS011;41331;45.412;10.992;2022-09-12T00:36:20;1.20;;;0.40;;
23432;SDS011;41331;45.412;10.992;2022-09-12T00:38:49;1.42;;;0.40;;
23432;SDS011;41331;45.412;10.992;2022-09-12T00:41:18;4.30;;;0.40;;
23432;SDS011;41331;45.412;10.992;2022-09-12T00:43:48;1.80;;;0.47;;
23432;SDS011;41331;45.412;10.992;2022-09-12T00:49:11;4.20;;;0.57;;
23432;SDS011;41331;45.412;10.992;2022-09-12T00:51:44;7.95;;;0.63;;
23432;SDS011;41331;45.412;10.992;2022-09-12T00:54:17;1.40;;;0.45;;
23432;SDS011;41331;45.412;10.992;2022-09-12T00:56:49;2.13;;;0.80;;
23432;SDS011;41331;45.412;10.992;2022-09-12T00:59:23;1.65;;;0.60;;
23432;SDS011;41331;45.412;10.992;2022-09-12T01:02:09;3.65;;;0.52;;
23432;SDS011;41331;45.412;10.992;2022-09-12T01:04:37;3.80;;;0.77;;
23432;SDS011;41331;45.412;10.992;2022-09-12T01:07:07;2.83;;;1.00;;
23432;SDS011;41331;45.412;10.992;2022-09-12T01:09:34;2.97;;;0.70;;
23432;SDS011;41331;45.412;10.992;2022-09-12T01:12:02;2.55;;;0.88;;
23432;SDS011;41331;45.412;10.992;2022-09-12T01:14:31;4.82;;;0.90;;
23432;SDS011;41331;45.412;10.992;2022-09-12T01:16:58;4.55;;;0.80;;
23432;SDS011;41331;45.412;10.992;2022-09-12T01:19:41;4.38;;;0.85;;
23432;SDS011;41331;45.412;10.992;2022-09-12T01:22:27;3.42;;;1.00;;
23432;SDS011;41331;45.412;10.992;2022-09-12T01:30:54;3.92;;;0.80;;
23432;SDS011;41331;45.412;10.992;2022-09-12T01:33:46;3.70;;;0.95;;
23432;SDS011;41331;45.412;10.992;2022-09-12T01:39:51;3.60;;;0.93;;
23432;SDS011;41331;45.412;10.992;2022-09-12T01:42:42;2.58;;;1.10;;
23432;SDS011;41331;45.412;10.992;2022-09-12T01:45:26;3.90;;;1.10;;
23432;SDS011;41331;45.412;10.992;2022-09-12T01:48:01;2.50;;;1.00;;
23432;SDS011;41331;45.412;10.992;2022-09-12T01:50:35;3.85;;;1.05;;
23432;SDS011;41331;45.412;10.992;2022-09-12T01:53:23;2.83;;;1.00;;
23432;SDS011;41331;45.412;10.992;2022-09-12T01:58:49;4.47;;;1.48;;
23432;SDS011;41331;45.412;10.992;2022-09-12T02:01:32;4.30;;;1.05;;
23432;SDS011;41331;45.412;10.992;2022-09-12T02:04:10;2.83;;;1.23;;
23432;SDS011;41331;45.412;10.992;2022-09-12T02:11:49;3.25;;;1.33;;
23432;SDS011;41331;45.412;10.992;2022-09-12T02:14:32;5.85;;;1.35;;
23432;SDS011;41331;45.412;10.992;2022-09-12T02:17:11;3.17;;;1.10;;
23432;SDS011;41331;45.412;10.992;2022-09-12T02:19:44;2.97;;;1.30;;
23432;SDS011;41331;45.412;10.992;2022-09-12T02:22:16;2.22;;;0.95;;
23432;SDS011;41331;45.412;10.992;2022-09-12T02:24:47;3.22;;;1.05;;
23432;SDS011;41331;45.412;10.992;2022-09-12T02:27:26;4.05;;;1.17;;
23432;SDS011;41331;45.412;10.992;2022-09-12T02:29:59;4.65;;;1.10;;
23432;SDS011;41331;45.412;10.992;2022-09-12T02:35:08;2.42;;;0.88;;
23432;SDS011;41331;45.412;10.992;2022-09-12T02:40:43;2.15;;;1.02;;
23432;SDS011;41331;45.412;10.992;2022-09-12T02:43:10;6.00;;;1.10;;
23432;SDS011;41331;45.412;10.992;2022-09-12T02:45:37;2.53;;;1.35;;
23432;SDS011;41331;45.412;10.992;2022-09-12T02:48:07;3.70;;;1.30;;
23432;SDS011;41331;45.412;10.992;2022-09-12T02:50:39;4.13;;;1.60;;
23432;SDS011;41331;45.412;10.992;2022-09-12T02:53:07;5.60;;;1.20;;
23432;SDS011;41331;45.412;10.992;2022-09-12T02:55:37;2.92;;;1.00;;
23432;SDS011;41331;45.412;10.992;2022-09-12T02:58:07;2.75;;;1.05;;
23432;SDS011;41331;45.412;10.992;2022-09-12T03:01:02;3.35;;;1.17;;
23432;SDS011;41331;45.412;10.992;2022-09-12T03:03:57;3.50;;;1.10;;
23432;SDS011;41331;45.412;10.992;2022-09-12T03:06:32;4.47;;;1.23;;
23432;SDS011;41331;45.412;10.992;2022-09-12T03:09:36;1.77;;;0.90;;
23432;SDS011;41331;45.412;10.992;2022-09-12T03:24:02;2.83;;;0.93;;
23432;SDS011;41331;45.412;10.992;2022-09-12T03:29:13;2.22;;;1.10;;
23432;SDS011;41331;45.412;10.992;2022-09-12T03:31:49;3.25;;;1.42;;
23432;SDS011;41331;45.412;10.992;2022-09-12T03:34:18;2.92;;;1.10;;
23432;SDS011;41331;45.412;10.992;2022-09-12T03:36:48;4.10;;;1.23;;
23432;SDS011;41331;45.412;10.992;2022-09-12T03:39:16;3.47;;;1.17;;
23432;SDS011;41331;45.412;10.992;2022-09-12T03:41:44;3.75;;;1.20;;
23432;SDS011;41331;45.412;10.992;2022-09-12T03:44:11;3.80;;;1.23;;
23432;SDS011;41331;45.412;10.992;2022-09-12T03:46:38;2.63;;;1.15;;
23432;SDS011;41331;45.412;10.992;2022-09-12T03:49:06;5.70;;;1.40;;
23432;SDS011;41331;45.412;10.992;2022-09-12T03:51:34;2.53;;;1.27;;
23432;SDS011;41331;45.412;10.992;2022-09-12T03:54:02;3.00;;;1.30;;
23432;SDS011;41331;45.412;10.992;2022-09-12T03:56:30;2.63;;;1.35;;
23432;SDS011;41331;45.412;10.992;2022-09-12T03:58:58;3.40;;;1.67;;
23432;SDS011;41331;45.412;10.992;2022-09-12T04:01:25;5.05;;;1.50;;
23432;SDS011;41331;45.412;10.992;2022-09-12T04:03:52;2.85;;;1.40;;
23432;SDS011;41331;45.412;10.992;2022-09-12T04:06:20;2.65;;;1.38;;
23432;SDS011;41331;45.412;10.992;2022-09-12T04:08:49;2.17;;;1.08;;
23432;SDS011;41331;45.412;10.992;2022-09-12T04:11:18;4.40;;;1.30;;
23432;SDS011;41331;45.412;10.992;2022-09-12T04:13:47;2.70;;;1.10;;
23432;SDS011;41331;45.412;10.992;2022-09-12T04:16:15;2.47;;;1.00;;
23432;SDS011;41331;45.412;10.992;2022-09-12T04:18:44;4.88;;;1.48;;
23432;SDS011;41331;45.412;10.992;2022-09-12T04:21:13;2.30;;;1.30;;
23432;SDS011;41331;45.412;10.992;2022-09-12T04:23:43;4.32;;;1.20;;
23432;SDS011;41331;45.412;10.992;2022-09-12T04:26:11;2.50;;;1.17;;
23432;SDS011;41331;45.412;10.992;2022-09-12T04:28:40;4.28;;;1.08;;
23432;SDS011;41331;45.412;10.992;2022-09-12T04:31:10;5.25;;;1.30;;
23432;SDS011;41331;45.412;10.992;2022-09-12T04:33:44;3.38;;;1.38;;
23432;SDS011;41331;45.412;10.992;2022-09-12T04:36:13;1.88;;;1.00;;
23432;SDS011;41331;45.412;10.992;2022-09-12T04:38:43;5.22;;;1.38;;
23432;SDS011;41331;45.412;10.992;2022-09-12T04:41:17;3.80;;;1.10;;
23432;SDS011;41331;45.412;10.992;2022-09-12T04:43:46;3.22;;;1.63;;
23432;SDS011;41331;45.412;10.992;2022-09-12T04:46:17;5.40;;;1.30;;
23432;SDS011;41331;45.412;10.992;2022-09-12T04:48:48;3.10;;;1.00;;
23432;SDS011;41331;45.412;10.992;2022-09-12T04:51:56;3.15;;;1.20;;
23432;SDS011;41331;45.412;10.992;2022-09-12T04:54:18;1.77;;;0.80;;
23432;SDS011;41331;45.412;10.992;2022-09-12T04:56:47;3.90;;;1.17;;
23432;SDS011;41331;45.412;10.992;2022-09-12T04:59:16;3.22;;;1.05;;
23432;SDS011;41331;45.412;10.992;2022-09-12T05:01:45;2.25;;;0.98;;
23432;SDS011;41331;45.412;10.992;2022-09-12T05:04:14;1.98;;;1.00;;
23432;SDS011;41331;45.412;10.992;2022-09-12T05:06:42;3.70;;;1.15;;
23432;SDS011;41331;45.412;10.992;2022-09-12T05:09:10;3.70;;;0.85;;
23432;SDS011;41331;45.412;10.992;2022-09-12T05:11:40;2.70;;;0.90;;
23432;SDS011;41331;45.412;10.992;2022-09-12T05:14:29;2.65;;;0.90;;
23432;SDS011;41331;45.412;10.992;2022-09-12T05:16:58;3.15;;;1.10;;
23432;SDS011;41331;45.412;10.992;2022-09-12T05:19:28;2.20;;;0.98;;
23432;SDS011;41331;45.412;10.992;2022-09-12T05:21:57;3.33;;;1.00;;
23432;SDS011;41331;45.412;10.992;2022-09-12T05:24:25;2.85;;;0.90;;
23432;SDS011;41331;45.412;10.992;2022-09-12T05:26:52;3.25;;;1.20;;
23432;SDS011;41331;45.412;10.992;2022-09-12T05:29:20;3.90;;;1.00;;
23432;SDS011;41331;45.412;10.992;2022-09-12T05:31:47;2.60;;;0.90;;
23432;SDS011;41331;45.412;10.992;2022-09-12T05:34:18;2.65;;;1.00;;
23432;SDS011;41331;45.412;10.992;2022-09-12T05:36:46;3.05;;;1.40;;
23432;SDS011;41331;45.412;10.992;2022-09-12T05:39:16;4.32;;;1.27;;
23432;SDS011;41331;45.412;10.992;2022-09-12T05:41:44;4.75;;;1.20;;
23432;SDS011;41331;45.412;10.992;2022-09-12T05:44:12;4.15;;;1.30;;
23432;SDS011;41331;45.412;10.992;2022-09-12T05:46:41;2.55;;;1.10;;
23432;SDS011;41331;45.412;10.992;2022-09-12T05:49:10;3.10;;;1.45;;
23432;SDS011;41331;45.412;10.992;2022-09-12T05:51:40;3.58;;;1.40;;
23432;SDS011;41331;45.412;10.992;2022-09-12T05:54:10;3.25;;;1.42;;
23432;SDS011;41331;45.412;10.992;2022-09-12T05:56:40;6.38;;;1.73;;
23432;SDS011;41331;45.412;10.992;2022-09-12T05:59:13;5.45;;;1.50;;
23432;SDS011;41331;45.412;10.992;2022-09-12T06:01:45;2.90;;;1.60;;
23432;SDS011;41331;45.412;10.992;2022-09-12T06:04:14;3.65;;;2.00;;
23432;SDS011;41331;45.412;10.992;2022-09-12T06:06:43;3.50;;;1.85;;
23432;SDS011;41331;45.412;10.992;2022-09-12T06:09:12;3.42;;;1.67;;
23432;SDS011;41331;45.412;10.992;2022-09-12T06:11:41;6.00;;;1.80;;
23432;SDS011;41331;45.412;10.992;2022-09-12T06:14:10;5.18;;;1.50;;
23432;SDS011;41331;45.412;10.992;2022-09-12T06:16:39;4.47;;;1.90;;
23432;SDS011;41331;45.412;10.992;2022-09-12T06:19:17;3.33;;;1.58;;
23432;SDS011;41331;45.412;10.992;2022-09-12T06:21:46;4.32;;;2.05;;
23432;SDS011;41331;45.412;10.992;2022-09-12T06:24:17;4.00;;;1.67;;
23432;SDS011;41331;45.412;10.992;2022-09-12T06:26:46;5.38;;;1.95;;
23432;SDS011;41331;45.412;10.992;2022-09-12T06:29:14;4.30;;;1.77;;
23432;SDS011;41331;45.412;10.992;2022-09-12T06:31:42;5.35;;;1.85;;
23432;SDS011;41331;45.412;10.992;2022-09-12T06:34:11;7.32;;;2.20;;
23432;SDS011;41331;45.412;10.992;2022-09-12T06:36:46;4.32;;;1.90;;
23432;SDS011;41331;45.412;10.992;2022-09-12T06:39:18;4.25;;;2.00;;
23432;SDS011;41331;45.412;10.992;2022-09-12T06:41:48;3.28;;;1.65;;
23432;SDS011;41331;45.412;10.992;2022-09-12T06:44:17;5.60;;;1.83;;
23432;SDS011;41331;45.412;10.992;2022-09-12T06:46:46;6.10;;;1.50;;
23432;SDS011;41331;45.412;10.992;2022-09-12T06:49:14;8.15;;;1.65;;
23432;SDS011;41331;45.412;10.992;2022-09-12T06:51:41;5.28;;;1.40;;
23432;SDS011;41331;45.412;10.992;2022-09-12T06:54:12;4.68;;;1.50;;
23432;SDS011;41331;45.412;10.992;2022-09-12T06:56:43;5.32;;;1.27;;
23432;SDS011;41331;45.412;10.992;2022-09-12T06:59:11;6.93;;;1.35;;
23432;SDS011;41331;45.412;10.992;2022-09-12T07:01:39;3.55;;;1.38;;
23432;SDS011;41331;45.412;10.992;2022-09-12T07:04:08;4.78;;;1.30;;
23432;SDS011;41331;45.412;10.992;2022-09-12T07:06:37;5.53;;;1.33;;
23432;SDS011;41331;45.412;10.992;2022-09-12T07:09:07;5.53;;;1.38;;
23432;SDS011;41331;45.412;10.992;2022-09-12T07:11:37;2.83;;;1.00;;
23432;SDS011;41331;45.412;10.992;2022-09-12T07:14:05;3.22;;;1.25;;
23432;SDS011;41331;45.412;10.992;2022-09-12T07:16:34;4.47;;;1.10;;
23432;SDS011;41331;45.412;10.992;2022-09-12T07:19:03;5.88;;;1.25;;
23432;SDS011;41331;45.412;10.992;2022-09-12T07:21:32;8.13;;;1.40;;
23432;SDS011;41331;45.412;10.992;2022-09-12T07:24:07;4.55;;;1.13;;
23432;SDS011;41331;45.412;10.992;2022-09-12T07:29:06;5.68;;;1.30;;
23432;SDS011;41331;45.412;10.992;2022-09-12T07:31:59;3.13;;;0.98;;
23432;SDS011;41331;45.412;10.992;2022-09-12T07:34:30;5.10;;;1.15;;
23432;SDS011;41331;45.412;10.992;2022-09-12T07:36:57;4.22;;;1.05;;
23432;SDS011;41331;45.412;10.992;2022-09-12T07:39:28;3.20;;;0.90;;
23432;SDS011;41331;45.412;10.992;2022-09-12T07:41:55;2.45;;;0.82;;
23432;SDS011;41331;45.412;10.992;2022-09-12T07:44:23;1.63;;;0.52;;
23432;SDS011;41331;45.412;10.992;2022-09-12T07:46:51;3.00;;;0.80;;
23432;SDS011;41331;45.412;10.992;2022-09-12T07:49:18;2.75;;;0.80;;
23432;SDS011;41331;45.412;10.992;2022-09-12T07:51:45;2.90;;;1.00;;
23432;SDS011;41331;45.412;10.992;2022-09-12T07:54:13;2.30;;;1.00;;
23432;SDS011;41331;45.412;10.992;2022-09-12T07:56:40;2.53;;;1.10;;
23432;SDS011;41331;45.412;10.992;2022-09-12T07:59:08;2.22;;;0.93;;
23432;SDS011;41331;45.412;10.992;2022-09-12T08:01:35;2.85;;;1.15;;
23432;SDS011;41331;45.412;10.992;2022-09-12T08:04:02;2.75;;;1.10;;
23432;SDS011;41331;45.412;10.992;2022-09-12T08:06:31;4.68;;;1.65;;
23432;SDS011;41331;45.412;10.992;2022-09-12T08:09:02;4.22;;;1.70;;
23432;SDS011;41331;45.412;10.992;2022-09-12T08:11:30;2.63;;;1.33;;
23432;SDS011;41331;45.412;10.992;2022-09-12T08:13:57;3.92;;;1.50;;
23432;SDS011;41331;45.412;10.992;2022-09-12T08:16:27;5.75;;;1.33;;
23432;SDS011;41331;45.412;10.992;2022-09-12T08:21:27;4.03;;;1.17;;
23432;SDS011;41331;45.412;10.992;2022-09-12T08:24:00;2.90;;;1.50;;
23432;SDS011;41331;45.412;10.992;2022-09-12T08:26:30;1.92;;;1.00;;
23432;SDS011;41331;45.412;10.992;2022-09-12T08:28:59;4.65;;;1.13;;
23432;SDS011;41331;45.412;10.992;2022-09-12T08:31:26;2.92;;;1.40;;
23432;SDS011;41331;45.412;10.992;2022-09-12T08:33:54;4.50;;;1.50;;
23432;SDS011;41331;45.412;10.992;2022-09-12T08:36:23;3.05;;;1.30;;
23432;SDS011;41331;45.412;10.992;2022-09-12T08:39:03;3.65;;;0.95;;
23432;SDS011;41331;45.412;10.992;2022-09-12T08:41:34;3.40;;;0.93;;
23432;SDS011;41331;45.412;10.992;2022-09-12T08:54:56;1.98;;;0.80;;
23432;SDS011;41331;45.412;10.992;2022-09-12T08:57:24;2.10;;;0.70;;
23432;SDS011;41331;45.412;10.992;2022-09-12T08:59:51;1.73;;;0.80;;
23432;SDS011;41331;45.412;10.992;2022-09-12T09:19:04;4.15;;;1.10;;
23432;SDS011;41331;45.412;10.992;2022-09-12T09:21:53;3.35;;;1.02;;
23432;SDS011;41331;45.412;10.992;2022-09-12T09:24:44;7.75;;;1.50;;
23432;SDS011;41331;45.412;10.992;2022-09-12T09:30:12;3.17;;;1.00;;
23432;SDS011;41331;45.412;10.992;2022-09-12T09:32:41;6.78;;;1.50;;
23432;SDS011;41331;45.412;10.992;2022-09-12T09:35:15;4.45;;;0.98;;
23432;SDS011;41331;45.412;10.992;2022-09-12T09:37:51;5.45;;;0.90;;
23432;SDS011;41331;45.412;10.992;2022-09-12T09:40:35;3.13;;;0.90;;
23432;SDS011;41331;45.412;10.992;2022-09-12T09:43:20;1.80;;;0.68;;
23432;SDS011;41331;45.412;10.992;2022-09-12T09:45:55;1.23;;;0.60;;
23432;SDS011;41331;45.412;10.992;2022-09-12T09:48:26;2.17;;;0.70;;
23432;SDS011;41331;45.412;10.992;2022-09-12T09:50:58;6.63;;;0.70;;
23432;SDS011;41331;45.412;10.992;2022-09-12T09:56:26;1.95;;;0.75;;
23432;SDS011;41331;45.412;10.992;2022-09-12T09:59:09;1.77;;;0.60;;
23432;SDS011;41331;45.412;10.992;2022-09-12T10:01:43;3.17;;;0.60;;
23432;SDS011;41331;45.412;10.992;2022-09-12T10:04:19;2.58;;;0.60;;
23432;SDS011;41331;45.412;10.992;2022-09-12T10:07:01;2.97;;;0.52;;
23432;SDS011;41331;45.412;10.992;2022-09-12T10:09:31;0.50;;;0.30;;
23432;SDS011;41331;45.412;10.992;2022-09-12T10:12:00;1.20;;;0.30;;
23432;SDS011;41331;45.412;10.992;2022-09-12T10:14:56;0.93;;;0.35;;
23432;SDS011;41331;45.412;10.992;2022-09-12T10:17:26;1.88;;;0.63;;
23432;SDS011;41331;45.412;10.992;2022-09-12T10:20:00;1.65;;;0.50;;
23432;SDS011;41331;45.412;10.992;2022-09-12T10:22:48;1.10;;;0.30;;
23432;SDS011;41331;45.412;10.992;2022-09-12T10:25:15;1.42;;;0.40;;
23432;SDS011;41331;45.412;10.992;2022-09-12T10:27:51;1.50;;;0.40;;
23432;SDS011;41331;45.412;10.992;2022-09-12T10:30:20;1.38;;;0.40;;
23432;SDS011;41331;45.412;10.992;2022-09-12T10:32:51;4.77;;;0.60;;
23432;SDS011;41331;45.412;10.992;2022-09-12T10:35:23;1.85;;;0.50;;
23432;SDS011;41331;45.412;10.992;2022-09-12T10:40:30;1.90;;;0.80;;
23432;SDS011;41331;45.412;10.992;2022-09-12T10:43:02;4.28;;;0.85;;
23432;SDS011;41331;45.412;10.992;2022-09-12T10:45:43;3.08;;;0.80;;
23432;SDS011;41331;45.412;10.992;2022-09-12T10:48:27;2.78;;;0.70;;
23432;SDS011;41331;45.412;10.992;2022-09-12T10:50:58;3.58;;;0.80;;
23432;SDS011;41331;45.412;10.992;2022-09-12T10:53:27;2.40;;;0.90;;
23432;SDS011;41331;45.412;10.992;2022-09-12T10:56:15;2.55;;;0.93;;
23432;SDS011;41331;45.412;10.992;2022-09-12T11:06:51;1.35;;;0.60;;
23432;SDS011;41331;45.412;10.992;2022-09-12T11:09:41;3.15;;;0.68;;
23432;SDS011;41331;45.412;10.992;2022-09-12T11:29:49;1.38;;;0.75;;
23432;SDS011;41331;45.412;10.992;2022-09-12T11:32:39;2.10;;;0.98;;
23432;SDS011;41331;45.412;10.992;2022-09-12T11:45:46;3.72;;;0.95;;
23432;SDS011;41331;45.412;10.992;2022-09-12T11:48:18;3.53;;;0.85;;
23432;SDS011;41331;45.412;10.992;2022-09-12T11:51:11;1.52;;;0.63;;
23432;SDS011;41331;45.412;10.992;2022-09-12T11:53:45;4.93;;;1.00;;
23432;SDS011;41331;45.412;10.992;2022-09-12T11:56:27;2.85;;;1.08;;
23432;SDS011;41331;45.412;10.992;2022-09-12T11:58:57;2.70;;;0.90;;
23432;SDS011;41331;45.412;10.992;2022-09-12T12:01:31;2.72;;;0.90;;
23432;SDS011;41331;45.412;10.992;2022-09-12T12:04:11;2.42;;;0.90;;
23432;SDS011;41331;45.412;10.992;2022-09-12T12:06:49;1.92;;;0.90;;
23432;SDS011;41331;45.412;10.992;2022-09-12T12:09:22;2.58;;;1.00;;
23432;SDS011;41331;45.412;10.992;2022-09-12T12:11:52;3.30;;;1.35;;
23432;SDS011;41331;45.412;10.992;2022-09-12T12:14:45;2.13;;;0.90;;
23432;SDS011;41331;45.412;10.992;2022-09-12T12:17:16;2.72;;;1.08;;
23432;SDS011;41331;45.412;10.992;2022-09-12T12:19:47;3.25;;;1.40;;
23432;SDS011;41331;45.412;10.992;2022-09-12T12:22:31;2.30;;;1.00;;
23432;SDS011;41331;45.412;10.992;2022-09-12T12:25:02;3.30;;;1.10;;
23432;SDS011;41331;45.412;10.992;2022-09-12T12:38:29;3.70;;;0.90;;
23432;SDS011;41331;45.412;10.992;2022-09-12T12:41:45;2.50;;;0.80;;
23432;SDS011;41331;45.412;10.992;2022-09-12T12:43:51;3.33;;;0.90;;
23432;SDS011;41331;45.412;10.992;2022-09-12T12:46:21;1.30;;;0.70;;
23432;SDS011;41331;45.412;10.992;2022-09-12T12:49:06;2.42;;;1.23;;
23432;SDS011;41331;45.412;10.992;2022-09-12T12:54:30;3.50;;;0.80;;
23432;SDS011;41331;45.412;10.992;2022-09-12T12:57:01;1.85;;;0.80;;
23432;SDS011;41331;45.412;10.992;2022-09-12T12:59:31;2.03;;;0.73;;
23432;SDS011;41331;45.412;10.992;2022-09-12T13:01:58;3.28;;;0.80;;
23432;SDS011;41331;45.412;10.992;2022-09-12T13:04:27;3.75;;;0.88;;
23432;SDS011;41331;45.412;10.992;2022-09-12T13:06:59;1.90;;;0.93;;
23432;SDS011;41331;45.412;10.992;2022-09-12T13:09:38;7.50;;;1.38;;
23432;SDS011;41331;45.412;10.992;2022-09-12T13:12:16;2.78;;;0.75;;
23432;SDS011;41331;45.412;10.992;2022-09-12T13:14:56;2.97;;;1.00;;
23432;SDS011;41331;45.412;10.992;2022-09-12T13:17:37;2.13;;;0.80;;
23432;SDS011;41331;45.412;10.992;2022-09-12T13:20:21;2.22;;;0.85;;
23432;SDS011;41331;45.412;10.992;2022-09-12T13:22:55;2.35;;;0.95;;
23432;SDS011;41331;45.412;10.992;2022-09-12T13:25:24;3.60;;;1.05;;
23432;SDS011;41331;45.412;10.992;2022-09-12T13:30:38;3.10;;;1.00;;
23432;SDS011;41331;45.412;10.992;2022-09-12T13:33:11;2.83;;;1.00;;
23432;SDS011;41331;45.412;10.992;2022-09-12T13:36:10;2.75;;;0.88;;
23432;SDS011;41331;45.412;10.992;2022-09-12T13:44:30;5.88;;;1.02;;
23432;SDS011;41331;45.412;10.992;2022-09-12T13:47:03;3.58;;;1.38;;
23432;SDS011;41331;45.412;10.992;2022-09-12T13:49:35;3.97;;;1.15;;
23432;SDS011;41331;45.412;10.992;2022-09-12T13:52:08;2.25;;;0.88;;
23432;SDS011;41331;45.412;10.992;2022-09-12T13:54:45;3.63;;;0.80;;
23432;SDS011;41331;45.412;10.992;2022-09-12T13:57:29;1.95;;;0.85;;
23432;SDS011;41331;45.412;10.992;2022-09-12T14:00:10;3.22;;;1.30;;
23432;SDS011;41331;45.412;10.992;2022-09-12T14:02:48;3.72;;;1.20;;
23432;SDS011;41331;45.412;10.992;2022-09-12T14:05:36;3.47;;;1.30;;
23432;SDS011;41331;45.412;10.992;2022-09-12T14:08:07;2.92;;;1.02;;
23432;SDS011;41331;45.412;10.992;2022-09-12T14:10:38;3.20;;;1.02;;
23432;SDS011;41331;45.412;10.992;2022-09-12T14:13:26;3.70;;;1.10;;
23432;SDS011;41331;45.412;10.992;2022-09-12T14:15:54;3.33;;;1.10;;
23432;SDS011;41331;45.412;10.992;2022-09-12T14:18:26;1.65;;;0.80;;
23432;SDS011;41331;45.412;10.992;2022-09-12T14:20:58;2.10;;;0.80;;
23432;SDS011;41331;45.412;10.992;2022-09-12T14:23:39;3.20;;;1.27;;
23432;SDS011;41331;45.412;10.992;2022-09-12T14:26:09;2.38;;;0.80;;
23432;SDS011;41331;45.412;10.992;2022-09-12T14:28:40;2.55;;;1.10;;
23432;SDS011;41331;45.412;10.992;2022-09-12T14:36:53;3.28;;;1.23;;
23432;SDS011;41331;45.412;10.992;2022-09-12T14:39:27;3.50;;;1.10;;
23432;SDS011;41331;45.412;10.992;2022-09-12T14:41:59;2.78;;;0.93;;
23432;SDS011;41331;45.412;10.992;2022-09-12T14:44:32;4.05;;;1.00;;
23432;SDS011;41331;45.412;10.992;2022-09-12T14:47:11;2.78;;;1.00;;
23432;SDS011;41331;45.412;10.992;2022-09-12T14:49:41;2.03;;;1.10;;
23432;SDS011;41331;45.412;10.992;2022-09-12T14:54:57;2.70;;;1.20;;
23432;SDS011;41331;45.412;10.992;2022-09-12T14:57:34;1.55;;;0.93;;
23432;SDS011;41331;45.412;10.992;2022-09-12T15:00:12;8.13;;;0.95;;
23432;SDS011;41331;45.412;10.992;2022-09-12T15:02:43;7.57;;;1.67;;
23432;SDS011;41331;45.412;10.992;2022-09-12T15:15:31;2.65;;;1.20;;
23432;SDS011;41331;45.412;10.992;2022-09-12T15:17:59;3.03;;;1.10;;
23432;SDS011;41331;45.412;10.992;2022-09-12T15:20:32;3.58;;;1.10;;
23432;SDS011;41331;45.412;10.992;2022-09-12T15:23:02;1.77;;;0.82;;
23432;SDS011;41331;45.412;10.992;2022-09-12T15:25:30;4.72;;;1.15;;
23432;SDS011;41331;45.412;10.992;2022-09-12T15:27:57;1.80;;;0.85;;
23432;SDS011;41331;45.412;10.992;2022-09-12T15:30:24;3.17;;;1.05;;
23432;SDS011;41331;45.412;10.992;2022-09-12T15:32:52;2.75;;;0.70;;
23432;SDS011;41331;45.412;10.992;2022-09-12T15:35:21;1.95;;;1.00;;
23432;SDS011;41331;45.412;10.992;2022-09-12T15:37:50;3.67;;;1.10;;
23432;SDS011;41331;45.412;10.992;2022-09-12T15:40:17;2.60;;;1.10;;
23432;SDS011;41331;45.412;10.992;2022-09-12T15:42:45;3.28;;;1.20;;
23432;SDS011;41331;45.412;10.992;2022-09-12T15:45:19;5.85;;;1.00;;
23432;SDS011;41331;45.412;10.992;2022-09-12T15:47:50;2.42;;;0.90;;
23432;SDS011;41331;45.412;10.992;2022-09-12T15:50:17;2.75;;;0.90;;
23432;SDS011;41331;45.412;10.992;2022-09-12T15:52:45;5.00;;;1.77;;
23432;SDS011;41331;45.412;10.992;2022-09-12T15:55:30;3.15;;;1.42;;
23432;SDS011;41331;45.412;10.992;2022-09-12T15:57:58;6.32;;;1.85;;
23432;SDS011;41331;45.412;10.992;2022-09-12T16:00:32;2.63;;;1.13;;
23432;SDS011;41331;45.412;10.992;2022-09-12T16:02:59;4.32;;;1.30;;
23432;SDS011;41331;45.412;10.992;2022-09-12T16:05:27;4.30;;;0.90;;
23432;SDS011;41331;45.412;10.992;2022-09-12T16:07:55;5.45;;;1.10;;
23432;SDS011;41331;45.412;10.992;2022-09-12T16:10:24;3.83;;;1.13;;
23432;SDS011;41331;45.412;10.992;2022-09-12T16:12:53;2.03;;;0.82;;
23432;SDS011;41331;45.412;10.992;2022-09-12T16:15:21;2.58;;;0.93;;
23432;SDS011;41331;45.412;10.992;2022-09-12T16:17:50;4.82;;;1.30;;
23432;SDS011;41331;45.412;10.992;2022-09-12T16:20:17;4.70;;;1.10;;
23432;SDS011;41331;45.412;10.992;2022-09-12T16:22:45;4.95;;;1.20;;
23432;SDS011;41331;45.412;10.992;2022-09-12T16:25:13;3.75;;;1.00;;
23432;SDS011;41331;45.412;10.992;2022-09-12T16:27:40;6.57;;;1.23;;
23432;SDS011;41331;45.412;10.992;2022-09-12T16:30:08;2.50;;;1.25;;
23432;SDS011;41331;45.412;10.992;2022-09-12T16:32:36;3.88;;;1.30;;
23432;SDS011;41331;45.412;10.992;2022-09-12T16:35:03;4.35;;;1.00;;
23432;SDS011;41331;45.412;10.992;2022-09-12T16:37:31;2.53;;;1.13;;
23432;SDS011;41331;45.412;10.992;2022-09-12T16:40:01;3.28;;;1.10;;
23432;SDS011;41331;45.412;10.992;2022-09-12T16:42:29;2.88;;;1.00;;
23432;SDS011;41331;45.412;10.992;2022-09-12T16:44:57;4.10;;;1.20;;
23432;SDS011;41331;45.412;10.992;2022-09-12T16:47:24;3.53;;;1.20;;
23432;SDS011;41331;45.412;10.992;2022-09-12T16:49:51;3.03;;;1.35;;
23432;SDS011;41331;45.412;10.992;2022-09-12T16:52:18;3.30;;;1.30;;
23432;SDS011;41331;45.412;10.992;2022-09-12T16:54:46;3.15;;;1.52;;
23432;SDS011;41331;45.412;10.992;2022-09-12T16:57:13;4.03;;;1.52;;
23432;SDS011;41331;45.412;10.992;2022-09-12T16:59:40;2.65;;;1.17;;
23432;SDS011;41331;45.412;10.992;2022-09-12T17:02:11;2.90;;;1.08;;
23432;SDS011;41331;45.412;10.992;2022-09-12T17:04:39;2.47;;;0.98;;
23432;SDS011;41331;45.412;10.992;2022-09-12T17:07:07;3.30;;;1.08;;
23432;SDS011;41331;45.412;10.992;2022-09-12T17:09:37;2.50;;;0.80;;
23432;SDS011;41331;45.412;10.992;2022-09-12T17:12:04;2.17;;;0.80;;
23432;SDS011;41331;45.412;10.992;2022-09-12T17:14:31;4.65;;;1.10;;
23432;SDS011;41331;45.412;10.992;2022-09-12T17:16:59;1.83;;;0.88;;
23432;SDS011;41331;45.412;10.992;2022-09-12T17:19:26;3.50;;;1.10;;
23432;SDS011;41331;45.412;10.992;2022-09-12T17:21:56;2.17;;;1.00;;
23432;SDS011;41331;45.412;10.992;2022-09-12T17:24:23;3.13;;;1.10;;
23432;SDS011;41331;45.412;10.992;2022-09-12T17:26:51;3.03;;;1.20;;
23432;SDS011;41331;45.412;10.992;2022-09-12T17:29:19;12.52;;;1.25;;
23432;SDS011;41331;45.412;10.992;2022-09-12T17:31:47;4.55;;;1.38;;
23432;SDS011;41331;45.412;10.992;2022-09-12T17:34:15;3.67;;;1.13;;
23432;SDS011;41331;45.412;10.992;2022-09-12T17:36:43;3.65;;;1.20;;
23432;SDS011;41331;45.412;10.992;2022-09-12T17:39:12;2.92;;;1.20;;
23432;SDS011;41331;45.412;10.992;2022-09-12T17:41:40;3.50;;;1.52;;
23432;SDS011;41331;45.412;10.992;2022-09-12T17:44:09;2.70;;;1.20;;